Time;durP1;ratioP1;P1;durP2;ratioP2;P2;SDS_P1;SDS_P2;PMS_P1;PMS_P2;Temp;Humidity;BMP_temperature;BMP_pressure;BME280_temperature;BME280_humidity;BME280_pressure;Samples;Min_cycle;Max_cycle;Signal;HPM_P1;HPM_P2
2023/10/07 00:02:13;;;;;;;12.43;3.10;;;18.20;99.90;;;;;;6243975;22;20368;-92
2023/10/07 00:04:44;;;;;;;14.80;3.75;;;17.90;99.90;;;;;;6267900;22;20368;-90
2023/10/07 00:07:12;;;;;;;13.07;3.80;;;18.20;99.90;;;;;;6244346;22;20379;-91
2023/10/07 00:09:45;;;;;;;13.93;3.63;;;18.30;99.90;;;;;;6242132;22;20375;-92
2023/10/07 00:12:16;;;;;;;13.17;3.50;;;17.90;99.90;;;;;;6244224;22;20368;-90
2023/10/07 00:14:42;;;;;;;12.97;3.37;;;18.30;99.90;;;;;;6243482;22;20368;-90
2023/10/07 00:17:16;;;;;;;14.88;4.03;;;18.30;99.90;;;;;;6243525;22;20395;-90
2023/10/07 00:19:44;;;;;;;15.70;4.18;;;18.10;99.90;;;;;;6269793;22;20918;-92
2023/10/07 00:22:13;;;;;;;12.10;3.53;;;18.20;99.90;;;;;;6243152;22;20463;-91
2023/10/07 00:24:43;;;;;;;13.07;3.60;;;18.00;99.90;;;;;;6244248;22;20698;-92
2023/10/07 00:27:30;;;;;;;12.48;3.63;;;17.70;99.90;;;;;;6243016;22;20733;-90
2023/10/07 00:29:59;;;;;;;13.95;3.55;;;18.00;99.90;;;;;;6269759;22;20364;-91
2023/10/07 00:32:30;;;;;;;15.73;3.88;;;18.00;99.90;;;;;;6270053;22;20689;-90
2023/10/07 00:34:59;;;;;;;12.60;3.67;;;17.90;99.90;;;;;;6242718;22;20372;-91
2023/10/07 00:37:26;;;;;;;13.82;3.60;;;18.00;99.90;;;;;;6244197;22;20376;-91
2023/10/07 00:39:53;;;;;;;14.27;4.25;;;18.00;99.90;;;;;;6267775;22;20876;-92
2023/10/07 00:42:19;;;;;;;14.40;4.17;;;18.00;99.90;;;;;;6269958;22;20800;-92
2023/10/07 00:44:47;;;;;;;16.77;4.57;;;17.90;99.90;;;;;;6242203;22;20368;-91
2023/10/07 00:47:13;;;;;;;15.85;4.88;;;18.00;99.90;;;;;;6269398;22;20367;-90
2023/10/07 00:49:52;;;;;;;17.00;4.82;;;17.80;99.90;;;;;;6269337;22;20368;-90
2023/10/07 00:52:28;;;;;;;15.00;4.32;;;17.80;99.90;;;;;;6267763;22;20380;-90
2023/10/07 00:57:47;;;;;;;19.65;4.93;;;17.70;99.90;;;;;;6267713;22;20390;-91
2023/10/07 01:02:45;;;;;;;14.13;3.88;;;17.70;99.90;;;;;;6269172;22;20376;-90
2023/10/07 01:06:13;;;;;;;13.50;4.03;;;18.00;99.90;;;;;;6267170;22;20392;-91
2023/10/07 01:08:07;;;;;;;17.17;4.45;;;17.70;99.90;;;;;;6249191;22;20722;-90
2023/10/07 01:10:37;;;;;;;13.13;3.90;;;17.80;99.90;;;;;;6241667;22;20833;-91
2023/10/07 01:13:03;;;;;;;14.38;3.67;;;18.00;99.90;;;;;;6243551;22;20365;-89
2023/10/07 01:15:30;;;;;;;16.42;3.90;;;17.80;99.90;;;;;;6269015;22;20364;-92
2023/10/07 01:18:03;;;;;;;15.20;4.03;;;18.20;99.90;;;;;;6267676;22;21083;-93
2023/10/07 01:21:00;;;;;;;12.95;3.45;;;18.10;99.90;;;;;;6269377;22;20379;-92
2023/10/07 01:23:32;;;;;;;12.38;3.30;;;17.80;99.90;;;;;;6265512;22;20369;-92
2023/10/07 01:25:59;;;;;;;13.82;3.45;;;18.00;99.90;;;;;;6243268;22;20403;-92
2023/10/07 01:28:26;;;;;;;14.10;3.30;;;17.90;99.90;;;;;;6268268;22;20372;-90
2023/10/07 01:31:08;;;;;;;12.45;3.30;;;18.10;99.90;;;;;;6268025;22;20382;-91
2023/10/07 01:33:47;;;;;;;13.85;3.28;;;18.20;99.90;;;;;;6243725;22;20364;-92
2023/10/07 01:36:19;;;;;;;12.95;3.70;;;17.90;99.90;;;;;;6267170;22;20379;-90
2023/10/07 01:38:48;;;;;;;13.52;3.58;;;17.90;99.90;;;;;;6268983;22;20740;-92
2023/10/07 01:41:18;;;;;;;13.95;3.45;;;18.30;99.90;;;;;;6267963;22;20404;-90
2023/10/07 01:43:56;;;;;;;14.98;3.45;;;18.40;99.90;;;;;;6267894;22;20376;-92
2023/10/07 01:46:32;;;;;;;14.25;3.60;;;17.90;99.90;;;;;;6243411;22;20442;-91
2023/10/07 01:49:05;;;;;;;12.57;3.22;;;18.10;99.90;;;;;;6266719;22;20360;-90
2023/10/07 01:51:31;;;;;;;11.90;3.47;;;17.50;99.90;;;;;;6268659;22;20837;-91
2023/10/07 01:54:02;;;;;;;11.10;3.10;;;17.90;99.90;;;;;;6242235;22;20774;-90
2023/10/07 01:56:32;;;;;;;13.25;3.53;;;17.90;99.90;;;;;;6242824;22;20384;-90
2023/10/07 01:59:04;;;;;;;14.82;3.35;;;18.00;99.90;;;;;;6268375;22;20387;-90
2023/10/07 02:01:29;;;;;;;11.48;2.97;;;18.10;99.90;;;;;;6267186;22;20490;-93
2023/10/07 02:03:59;;;;;;;13.43;2.90;;;18.20;99.90;;;;;;6242695;22;20404;-91
2023/10/07 02:06:26;;;;;;;12.95;3.25;;;18.20;99.90;;;;;;6241126;22;20403;-91
2023/10/07 02:08:57;;;;;;;14.40;3.40;;;18.20;99.90;;;;;;6268378;22;20426;-89
2023/10/07 02:11:30;;;;;;;14.25;3.33;;;18.10;99.90;;;;;;6267349;22;20682;-90
2023/10/07 02:13:56;;;;;;;14.90;3.77;;;18.40;99.90;;;;;;6242650;22;20365;-91
2023/10/07 02:16:25;;;;;;;13.63;3.70;;;18.20;99.90;;;;;;6243206;22;20494;-90
2023/10/07 02:18:51;;;;;;;15.45;3.50;;;18.30;99.90;;;;;;6241402;22;20361;-90
2023/10/07 02:21:20;;;;;;;15.95;3.50;;;18.00;99.90;;;;;;6243415;22;20404;-89
2023/10/07 02:23:47;;;;;;;11.85;3.38;;;18.00;99.90;;;;;;6267396;22;20372;-91
2023/10/07 02:26:20;;;;;;;15.30;3.50;;;18.30;99.90;;;;;;6268576;22;20919;-91
2023/10/07 02:28:52;;;;;;;14.50;3.03;;;18.40;99.90;;;;;;6242049;22;20372;-89
2023/10/07 02:31:19;;;;;;;11.18;3.22;;;18.00;99.90;;;;;;6267519;22;20777;-92
2023/10/07 02:33:58;;;;;;;13.20;3.40;;;18.10;99.90;;;;;;6243498;22;20360;-92
2023/10/07 02:36:36;;;;;;;12.90;3.30;;;18.80;99.90;;;;;;6267477;22;20368;-91
2023/10/07 02:39:18;;;;;;;12.85;3.58;;;18.20;99.90;;;;;;6243450;22;20439;-91
2023/10/07 02:41:47;;;;;;;14.80;3.67;;;18.00;99.90;;;;;;6267426;22;20682;-90
2023/10/07 02:44:25;;;;;;;12.30;3.58;;;18.00;99.90;;;;;;6242435;22;20893;-92
2023/10/07 02:46:54;;;;;;;14.82;3.60;;;18.10;99.90;;;;;;6242930;22;20479;-91
2023/10/07 02:49:25;;;;;;;14.57;4.00;;;17.70;99.90;;;;;;6241078;22;20360;-90
2023/10/07 02:52:00;;;;;;;12.88;3.15;;;18.40;99.90;;;;;;6243135;22;20702;-91
2023/10/07 02:54:41;;;;;;;14.57;3.67;;;18.30;99.90;;;;;;6267118;22;20383;-91
2023/10/07 02:57:08;;;;;;;12.93;3.35;;;18.40;99.90;;;;;;6268393;22;20371;-91
2023/10/07 02:59:36;;;;;;;15.85;3.80;;;18.00;99.90;;;;;;6268524;22;20369;-91
2023/10/07 03:02:25;;;;;;;12.43;3.58;;;18.00;99.90;;;;;;6267009;22;20367;-90
2023/10/07 03:05:14;;;;;;;17.05;3.47;;;18.00;99.90;;;;;;6243367;22;20415;-91
2023/10/07 03:07:49;;;;;;;12.38;3.40;;;18.10;99.90;;;;;;6267195;22;20395;-91
2023/10/07 03:10:19;;;;;;;14.38;3.47;;;18.00;99.90;;;;;;6243136;22;21205;-91
2023/10/07 03:12:56;;;;;;;16.90;3.73;;;18.00;99.90;;;;;;6270151;22;20368;-90
2023/10/07 03:15:39;;;;;;;11.75;3.42;;;18.00;99.90;;;;;;6243002;22;20435;-92
2023/10/07 03:18:07;;;;;;;13.70;3.43;;;18.40;99.90;;;;;;6244866;22;21002;-91
2023/10/07 03:20:46;;;;;;;12.13;2.92;;;18.00;99.90;;;;;;6243135;22;20403;-91
2023/10/07 03:23:17;;;;;;;12.80;3.50;;;18.30;99.90;;;;;;6244356;22;20368;-93
2023/10/07 03:28:24;;;;;;;13.07;3.25;;;18.20;99.90;;;;;;6268701;22;20427;-90
2023/10/07 03:30:55;;;;;;;14.68;3.40;;;18.00;99.90;;;;;;6244562;22;20365;-91
2023/10/07 03:39:00;;;;;;;15.57;3.50;;;18.10;99.90;;;;;;6269868;22;20471;-92
2023/10/07 03:41:25;;;;;;;13.30;3.38;;;18.50;99.90;;;;;;6242906;22;20372;-90
2023/10/07 03:43:51;;;;;;;15.03;3.20;;;18.10;99.90;;;;;;6244514;22;20375;-91
2023/10/07 03:46:17;;;;;;;18.58;3.72;;;18.00;99.90;;;;;;6243000;22;20485;-88
2023/10/07 03:48:53;;;;;;;13.95;3.72;;;18.00;99.90;;;;;;6270006;22;20702;-91
2023/10/07 03:51:22;;;;;;;14.98;3.65;;;18.00;99.90;;;;;;6244102;22;20414;-89
2023/10/07 03:53:49;;;;;;;15.63;3.30;;;18.40;99.90;;;;;;6243194;22;20368;-91
2023/10/07 03:56:15;;;;;;;14.60;3.70;;;18.20;99.90;;;;;;6269627;22;20429;-90
2023/10/07 03:58:41;;;;;;;12.00;3.30;;;18.00;99.90;;;;;;6242306;22;20778;-92
2023/10/07 04:01:16;;;;;;;15.37;3.80;;;18.20;99.90;;;;;;6268499;22;20368;-91
2023/10/07 04:03:47;;;;;;;16.58;3.67;;;17.80;99.90;;;;;;6241934;22;20384;-91
2023/10/07 04:06:14;;;;;;;16.98;3.35;;;17.90;99.90;;;;;;6243713;22;20415;-90
2023/10/07 04:08:40;;;;;;;15.10;3.15;;;18.10;99.90;;;;;;6243042;22;20364;-89
2023/10/07 04:11:14;;;;;;;12.98;3.42;;;18.30;99.90;;;;;;6243286;22;20383;-91
2023/10/07 04:13:43;;;;;;;16.95;3.30;;;18.00;99.90;;;;;;6269546;22;20392;-90
2023/10/07 04:16:22;;;;;;;15.13;3.53;;;18.20;99.90;;;;;;6267887;22;20409;-90
2023/10/07 04:19:06;;;;;;;14.30;3.60;;;18.20;99.90;;;;;;6244194;22;20364;-91
2023/10/07 04:21:39;;;;;;;17.07;3.60;;;17.90;99.90;;;;;;6268285;22;20365;-90
2023/10/07 04:24:11;;;;;;;15.48;3.20;;;17.90;99.90;;;;;;6268931;22;20379;-90
2023/10/07 04:26:42;;;;;;;14.07;3.40;;;18.00;99.90;;;;;;6247840;22;20496;-90
2023/10/07 04:29:14;;;;;;;15.40;3.13;;;17.90;99.90;;;;;;6246912;22;20673;-89
2023/10/07 04:31:54;;;;;;;14.77;3.08;;;17.90;99.90;;;;;;6248958;22;20363;-91
2023/10/07 04:34:24;;;;;;;16.30;3.33;;;17.90;99.90;;;;;;6272898;22;20374;-91
2023/10/07 04:39:27;;;;;;;18.65;3.65;;;18.20;99.90;;;;;;6274179;22;20374;-88
2023/10/07 04:41:59;;;;;;;13.57;3.80;;;17.90;99.90;;;;;;6246468;22;20453;-91
2023/10/07 04:52:30;;;;;;;13.07;3.22;;;17.90;99.90;;;;;;6273999;22;20673;-90
2023/10/07 04:54:58;;;;;;;13.48;3.22;;;18.20;99.90;;;;;;6272416;22;20424;-91
2023/10/07 05:00:26;;;;;;;14.35;3.08;;;18.20;99.90;;;;;;6272566;22;20392;-89
2023/10/07 05:02:53;;;;;;;14.60;3.03;;;17.90;99.90;;;;;;6247713;22;20363;-90
2023/10/07 05:05:18;;;;;;;13.05;3.05;;;18.00;99.90;;;;;;6247690;22;20389;-90
2023/10/07 05:07:44;;;;;;;16.37;3.70;;;17.90;99.90;;;;;;6271717;22;20371;-89
2023/10/07 05:10:09;;;;;;;15.50;3.78;;;17.90;99.90;;;;;;6273941;22;20366;-90
2023/10/07 05:12:35;;;;;;;14.30;3.27;;;17.90;99.90;;;;;;6270938;22;20375;-90
2023/10/07 05:15:05;;;;;;;15.15;3.22;;;17.90;99.90;;;;;;6248038;22;20371;-90
2023/10/07 05:17:36;;;;;;;15.75;3.30;;;17.90;99.90;;;;;;6268952;22;20362;-92
2023/10/07 05:20:05;;;;;;;12.55;2.70;;;17.80;99.90;;;;;;6273049;22;21218;-90
2023/10/07 05:22:31;;;;;;;13.37;2.63;;;17.80;99.90;;;;;;6248002;22;20465;-90
2023/10/07 05:24:59;;;;;;;14.57;2.83;;;17.80;99.90;;;;;;6245957;22;20453;-89
2023/10/07 05:27:25;;;;;;;14.18;2.78;;;17.80;99.90;;;;;;6247894;22;20657;-89
2023/10/07 05:29:51;;;;;;;14.68;3.25;;;18.00;99.90;;;;;;6245774;22;20374;-92
2023/10/07 05:32:18;;;;;;;14.43;3.07;;;17.80;99.90;;;;;;6247484;22;20359;-91
2023/10/07 05:34:46;;;;;;;16.80;3.00;;;17.80;99.90;;;;;;6245946;22;20363;-90
2023/10/07 05:37:12;;;;;;;12.27;2.50;;;17.80;99.90;;;;;;6247407;22;20363;-91
2023/10/07 05:39:41;;;;;;;14.05;3.15;;;17.80;99.90;;;;;;6272979;22;20371;-90
2023/10/07 05:42:10;;;;;;;13.15;2.45;;;17.80;99.90;;;;;;6271390;22;20381;-91
2023/10/07 05:44:40;;;;;;;13.17;2.63;;;17.80;99.90;;;;;;6248236;22;20874;-89
2023/10/07 05:47:08;;;;;;;15.57;3.05;;;17.60;99.90;;;;;;6245719;22;20394;-91
2023/10/07 05:49:34;;;;;;;13.93;3.00;;;17.80;99.90;;;;;;6273959;22;20417;-91
2023/10/07 05:51:59;;;;;;;13.20;2.87;;;17.70;99.90;;;;;;6245889;22;20454;-90
2023/10/07 05:54:28;;;;;;;13.32;2.70;;;18.10;99.90;;;;;;6248122;22;20424;-91
2023/10/07 05:56:55;;;;;;;16.33;2.75;;;18.10;99.90;;;;;;6246916;22;20474;-90
2023/10/07 05:59:23;;;;;;;14.70;2.77;;;18.00;99.90;;;;;;6272056;22;20370;-89
2023/10/07 06:01:48;;;;;;;16.23;2.60;;;17.60;99.90;;;;;;6273529;22;20442;-91
2023/10/07 06:04:14;;;;;;;13.40;3.13;;;17.70;99.90;;;;;;6271436;22;20894;-91
2023/10/07 06:06:42;;;;;;;12.88;3.03;;;17.70;99.90;;;;;;6247541;22;20482;-89
2023/10/07 06:09:13;;;;;;;11.98;2.40;;;17.90;99.90;;;;;;6245650;22;20355;-89
2023/10/07 06:11:40;;;;;;;14.82;2.97;;;17.60;99.90;;;;;;6247896;22;20437;-91
2023/10/07 06:14:06;;;;;;;14.43;2.50;;;18.00;99.90;;;;;;6272166;22;20378;-89
2023/10/07 06:16:32;;;;;;;10.57;2.50;;;18.00;99.90;;;;;;6247092;22;20403;-89
2023/10/07 06:18:58;;;;;;;12.40;2.42;;;18.00;99.90;;;;;;6246948;22;20371;-91
2023/10/07 06:21:27;;;;;;;13.27;2.58;;;17.60;99.90;;;;;;6271766;22;20393;-90
2023/10/07 06:23:58;;;;;;;15.82;3.03;;;17.70;99.90;;;;;;6247780;22;20374;-91
2023/10/07 06:26:24;;;;;;;13.38;3.05;;;17.80;99.90;;;;;;6246499;22;20402;-92
2023/10/07 06:28:50;;;;;;;11.63;2.67;;;17.70;99.90;;;;;;6248978;22;20359;-91
2023/10/07 06:31:31;;;;;;;13.23;2.73;;;17.60;99.90;;;;;;6247224;22;20437;-92
2023/10/07 06:34:03;;;;;;;11.30;2.67;;;17.90;99.90;;;;;;6247559;22;20454;-91
2023/10/07 06:36:31;;;;;;;13.77;2.97;;;17.60;99.90;;;;;;6248971;22;20390;-94
2023/10/07 06:39:07;;;;;;;13.13;3.40;;;17.60;99.90;;;;;;6245497;22;20366;-90
2023/10/07 06:41:33;;;;;;;17.48;3.72;;;17.80;99.90;;;;;;6273251;22;20369;-90
2023/10/07 06:44:02;;;;;;;12.20;3.15;;;17.80;99.90;;;;;;6245532;22;20458;-91
2023/10/07 06:46:42;;;;;;;14.00;3.00;;;17.50;99.90;;;;;;6249171;22;20417;-92
2023/10/07 06:49:21;;;;;;;12.75;3.00;;;17.50;99.90;;;;;;6249688;22;20374;-91
2023/10/07 06:51:56;;;;;;;14.73;3.03;;;17.80;99.90;;;;;;6248512;22;20753;-94
2023/10/07 06:54:23;;;;;;;14.10;3.70;;;17.80;99.90;;;;;;6250407;22;21139;-91
2023/10/07 06:56:54;;;;;;;13.30;3.38;;;17.60;99.90;;;;;;6247720;22;20365;-92
2023/10/07 06:59:27;;;;;;;15.60;3.13;;;18.00;99.90;;;;;;6250520;22;20354;-90
2023/10/07 07:01:54;;;;;;;11.85;2.90;;;17.90;99.90;;;;;;6249380;22;20370;-90
2023/10/07 07:04:22;;;;;;;14.27;3.10;;;17.50;99.90;;;;;;6273823;22;20455;-90
2023/10/07 07:06:58;;;;;;;12.38;3.20;;;17.70;99.90;;;;;;6274937;22;20386;-91
2023/10/07 07:12:11;;;;;;;12.40;3.22;;;17.70;99.90;;;;;;6275364;22;20370;-90
2023/10/07 07:14:37;;;;;;;12.63;2.80;;;17.70;99.90;;;;;;6248519;22;20390;-90
2023/10/07 07:22:42;;;;;;;9.77;2.53;;;17.80;99.90;;;;;;6272837;22;20842;-91
2023/10/07 07:25:11;;;;;;;9.63;2.57;;;18.20;99.90;;;;;;6269535;22;20391;-90
2023/10/07 07:27:48;;;;;;;8.45;2.38;;;17.90;99.90;;;;;;6268661;22;20368;-90
2023/10/07 07:30:29;;;;;;;12.38;2.72;;;17.90;99.90;;;;;;6268661;22;20380;-91
2023/10/07 07:32:58;;;;;;;11.38;2.65;;;18.00;99.90;;;;;;6270188;22;20400;-89
2023/10/07 07:35:40;;;;;;;12.93;3.00;;;18.20;99.90;;;;;;6243289;22;20364;-90
2023/10/07 07:38:41;;;;;;;11.70;2.75;;;18.30;99.90;;;;;;6245067;22;20396;-92
2023/10/07 07:41:09;;;;;;;13.03;2.60;;;18.30;99.90;;;;;;6243836;22;20368;-91
2023/10/07 07:43:39;;;;;;;10.60;2.67;;;18.10;99.90;;;;;;6242037;22;20410;-90
2023/10/07 07:46:26;;;;;;;12.60;3.47;;;18.60;99.90;;;;;;6269835;22;20424;-91
2023/10/07 07:48:54;;;;;;;12.48;2.92;;;18.10;99.90;;;;;;6268059;22;20702;-89
2023/10/07 07:51:24;;;;;;;10.77;2.67;;;18.10;99.90;;;;;;6270166;22;20793;-91
2023/10/07 07:53:51;;;;;;;11.25;2.70;;;18.10;99.90;;;;;;6244237;22;20376;-91
2023/10/07 07:56:18;;;;;;;11.57;2.78;;;18.20;99.90;;;;;;6242728;22;20414;-92
2023/10/07 07:58:47;;;;;;;11.18;3.33;;;18.60;99.90;;;;;;6244998;22;20360;-91
2023/10/07 08:01:19;;;;;;;13.20;3.38;;;18.20;99.90;;;;;;6268365;22;20368;-91
2023/10/07 08:03:45;;;;;;;12.00;2.75;;;18.50;99.90;;;;;;6244708;22;20411;-90
2023/10/07 08:06:11;;;;;;;12.97;3.17;;;18.40;99.90;;;;;;6267578;22;20388;-91
2023/10/07 08:08:37;;;;;;;13.07;3.17;;;18.60;99.90;;;;;;6244203;22;20372;-92
2023/10/07 08:11:05;;;;;;;12.48;2.92;;;18.20;99.90;;;;;;6243251;22;20418;-90
2023/10/07 08:13:31;;;;;;;15.27;3.80;;;18.70;99.90;;;;;;6268367;22;20897;-89
2023/10/07 08:16:05;;;;;;;10.30;2.55;;;18.20;99.90;;;;;;6244056;22;20361;-89
2023/10/07 08:18:31;;;;;;;13.93;3.45;;;18.50;99.90;;;;;;6242607;22;20361;-89
2023/10/07 08:21:16;;;;;;;13.40;3.30;;;18.60;99.90;;;;;;6242911;22;20360;-89
2023/10/07 08:23:46;;;;;;;12.23;3.00;;;18.20;99.90;;;;;;6267717;22;20361;-90
2023/10/07 08:26:12;;;;;;;11.85;3.28;;;18.20;99.90;;;;;;6242901;22;20395;-90
2023/10/07 08:28:45;;;;;;;14.73;3.78;;;18.30;99.90;;;;;;6268589;22;20375;-91
2023/10/07 08:31:20;;;;;;;14.80;2.97;;;18.70;99.90;;;;;;6241626;22;20395;-93
2023/10/07 08:34:09;;;;;;;12.45;3.28;;;19.00;99.90;;;;;;6244036;22;20486;-90
2023/10/07 08:36:34;;;;;;;13.85;3.55;;;18.40;99.90;;;;;;6266273;22;20365;-89
2023/10/07 08:39:05;;;;;;;14.57;3.50;;;18.80;99.90;;;;;;6268486;22;20364;-89
2023/10/07 08:41:31;;;;;;;14.88;3.25;;;18.70;99.90;;;;;;6243581;22;20400;-90
2023/10/07 08:44:14;;;;;;;13.43;3.30;;;18.60;99.90;;;;;;6267937;22;20418;-92
2023/10/07 08:46:54;;;;;;;14.43;3.47;;;18.60;99.90;;;;;;6243884;22;20396;-91
2023/10/07 08:49:26;;;;;;;14.10;3.73;;;18.60;99.90;;;;;;6242021;22;20368;-92
2023/10/07 08:51:55;;;;;;;11.80;2.70;;;18.50;99.90;;;;;;6244361;22;20364;-90
2023/10/07 08:54:26;;;;;;;14.20;3.40;;;18.60;99.90;;;;;;6242632;22;20372;-90
2023/10/07 08:56:57;;;;;;;12.88;3.40;;;18.50;99.90;;;;;;6268016;22;20372;-92
2023/10/07 08:59:33;;;;;;;13.23;3.67;;;18.30;99.90;;;;;;6243763;22;20379;-94
2023/10/07 09:02:12;;;;;;;13.15;3.42;;;19.00;99.90;;;;;;6267095;22;20365;-92
2023/10/07 09:04:40;;;;;;;13.38;3.30;;;18.90;99.90;;;;;;6268714;22;20826;-93
2023/10/07 09:07:08;;;;;;;15.30;3.50;;;19.10;99.90;;;;;;6242051;22;20939;-92
2023/10/07 09:09:38;;;;;;;14.05;4.30;;;19.10;99.90;;;;;;6243272;22;20396;-91
2023/10/07 09:12:18;;;;;;;12.95;4.03;;;19.10;99.90;;;;;;6243877;22;20785;-92
2023/10/07 09:14:51;;;;;;;14.32;3.80;;;19.20;99.90;;;;;;6266670;22;20698;-90
2023/10/07 09:17:20;;;;;;;14.85;4.00;;;19.30;99.90;;;;;;6269409;22;20903;-91
2023/10/07 09:19:49;;;;;;;14.30;4.15;;;18.90;99.90;;;;;;6267289;22;20379;-91
2023/10/07 09:22:17;;;;;;;18.75;4.03;;;18.60;99.90;;;;;;6269204;22;20360;-90
2023/10/07 09:24:43;;;;;;;14.13;4.57;;;18.90;99.90;;;;;;6242586;22;20404;-91
2023/10/07 09:27:13;;;;;;;14.98;4.07;;;19.40;99.90;;;;;;6242443;22;20392;-92
2023/10/07 09:29:39;;;;;;;11.98;3.63;;;19.20;99.90;;;;;;6243736;22;20376;-92
2023/10/07 09:32:12;;;;;;;13.23;4.47;;;18.90;99.90;;;;;;6241418;22;20404;-91
2023/10/07 09:34:47;;;;;;;15.27;3.97;;;18.90;99.90;;;;;;6243334;22;20422;-91
2023/10/07 09:37:32;;;;;;;12.90;4.22;;;19.30;99.90;;;;;;6241420;22;20368;-91
2023/10/07 09:40:19;;;;;;;18.73;4.57;;;18.70;99.90;;;;;;6267265;22;20368;-90
2023/10/07 09:42:58;;;;;;;13.73;4.30;;;19.00;99.90;;;;;;6268007;22;20400;-89
2023/10/07 09:45:32;;;;;;;17.93;4.10;;;18.90;99.90;;;;;;6265464;22;20426;-90
2023/10/07 09:48:00;;;;;;;14.93;4.22;;;18.90;99.90;;;;;;6268577;22;20866;-91
2023/10/07 09:50:33;;;;;;;13.68;3.88;;;19.30;99.90;;;;;;6242045;22;20375;-92
2023/10/07 09:53:40;;;;;;;13.25;3.83;;;19.30;99.90;;;;;;6242531;22;20848;-91
2023/10/07 09:56:43;;;;;;;11.98;4.13;;;19.00;99.90;;;;;;6226483;22;21366;-90
2023/10/07 09:59:48;;;;;;;13.38;4.20;;;19.00;99.90;;;;;;6267105;22;20365;-90
2023/10/07 10:02:51;;;;;;;12.35;3.70;;;19.00;99.90;;;;;;6241168;22;20378;-93
2023/10/07 10:05:28;;;;;;;15.90;4.10;;;19.00;99.90;;;;;;6242771;22;20384;-90
2023/10/07 10:08:10;;;;;;;13.43;3.78;;;19.00;99.90;;;;;;6241600;22;20391;-91
2023/10/07 10:10:44;;;;;;;16.15;4.15;;;19.00;99.90;;;;;;6267053;22;20402;-91
2023/10/07 10:13:28;;;;;;;13.18;3.83;;;19.30;99.90;;;;;;6242616;22;20403;-89
2023/10/07 10:16:00;;;;;;;16.35;4.55;;;19.40;99.90;;;;;;6265890;22;20371;-89
2023/10/07 10:18:38;;;;;;;13.97;3.90;;;19.30;99.90;;;;;;6267893;22;20376;-90
2023/10/07 10:21:09;;;;;;;12.63;3.60;;;19.20;99.90;;;;;;6266992;22;20369;-90
2023/10/07 10:23:39;;;;;;;13.38;4.25;;;19.50;99.90;;;;;;6266481;22;20451;-90
2023/10/07 10:26:14;;;;;;;15.68;4.38;;;19.10;99.90;;;;;;6242182;22;20407;-89
2023/10/07 10:28:59;;;;;;;12.27;3.58;;;19.00;99.90;;;;;;6266305;22;20384;-90
2023/10/07 10:31:32;;;;;;;11.65;4.00;;;19.20;99.90;;;;;;6243279;22;20367;-92
2023/10/07 10:34:05;;;;;;;10.83;3.60;;;19.20;99.90;;;;;;6242131;22;20384;-90
2023/10/07 10:36:43;;;;;;;13.27;4.17;;;19.20;99.90;;;;;;6242010;22;20368;-90
2023/10/07 10:39:36;;;;;;;14.75;3.95;;;19.20;99.90;;;;;;6268739;22;20360;-92
2023/10/07 10:42:09;;;;;;;14.32;3.75;;;19.40;99.90;;;;;;6262234;22;20366;-92
2023/10/07 10:44:39;;;;;;;12.47;4.07;;;19.40;99.90;;;;;;6243373;22;20839;-90
2023/10/07 10:47:07;;;;;;;13.57;4.05;;;19.50;99.90;;;;;;6242666;22;20940;-91
2023/10/07 10:49:35;;;;;;;11.60;4.03;;;19.60;99.90;;;;;;6242210;22;20372;-91
2023/10/07 10:52:02;;;;;;;15.40;3.90;;;20.00;99.90;;;;;;6268762;22;20435;-92
2023/10/07 10:54:28;;;;;;;14.45;3.70;;;19.50;99.90;;;;;;6241625;22;20371;-91
2023/10/07 10:56:58;;;;;;;11.60;3.45;;;19.80;99.90;;;;;;6243612;22;20371;-92
2023/10/07 10:59:42;;;;;;;11.20;3.53;;;19.70;99.90;;;;;;6241526;22;20368;-92
2023/10/07 11:02:17;;;;;;;13.05;3.70;;;19.40;99.90;;;;;;6268230;22;20406;-93
2023/10/07 11:04:45;;;;;;;12.10;3.78;;;19.40;99.90;;;;;;6243048;22;20414;-90
2023/10/07 11:07:12;;;;;;;13.10;4.07;;;19.40;99.90;;;;;;6266856;22;20445;-92
2023/10/07 11:09:38;;;;;;;13.63;4.43;;;19.70;99.90;;;;;;6242881;22;20360;-94
2023/10/07 11:12:16;;;;;;;15.02;4.18;;;19.30;99.90;;;;;;6241356;22;20368;-91
2023/10/07 11:14:43;;;;;;;11.03;3.93;;;19.30;99.90;;;;;;6243273;22;20370;-90
2023/10/07 11:17:10;;;;;;;11.32;3.85;;;19.70;99.90;;;;;;6241580;22;20373;-92
2023/10/07 11:19:54;;;;;;;10.63;3.88;;;19.30;99.90;;;;;;6242950;22;20754;-92
2023/10/07 11:22:21;;;;;;;11.90;3.47;;;19.50;99.90;;;;;;6243548;22;21151;-92
2023/10/07 11:24:50;;;;;;;13.17;3.73;;;19.60;99.90;;;;;;6266366;22;20376;-91
2023/10/07 11:27:17;;;;;;;10.88;3.50;;;19.30;99.90;;;;;;6242958;22;20403;-92
2023/10/07 11:29:43;;;;;;;12.18;3.63;;;19.40;99.90;;;;;;6240984;22;20418;-90
2023/10/07 11:32:09;;;;;;;12.83;4.07;;;19.40;99.90;;;;;;6269760;22;20814;-92
2023/10/07 11:34:39;;;;;;;10.85;3.83;;;19.30;99.90;;;;;;6244351;22;20364;-90
2023/10/07 11:37:09;;;;;;;15.13;4.15;;;19.40;99.90;;;;;;6269301;22;20396;-91
2023/10/07 11:39:45;;;;;;;12.13;3.50;;;19.60;99.90;;;;;;6244658;22;20360;-95
2023/10/07 11:42:14;;;;;;;12.73;3.63;;;19.50;99.90;;;;;;6242910;22;20382;-90
2023/10/07 11:44:46;;;;;;;11.50;3.75;;;19.60;99.90;;;;;;6244650;22;20709;-91
2023/10/07 11:47:16;;;;;;;12.00;3.78;;;19.60;99.90;;;;;;6268711;22;20394;-91
2023/10/07 11:49:46;;;;;;;14.13;4.03;;;20.00;99.90;;;;;;6245057;22;20399;-92
2023/10/07 11:52:12;;;;;;;12.90;4.03;;;19.70;99.90;;;;;;6270086;22;20368;-91
2023/10/07 11:54:37;;;;;;;16.55;4.30;;;19.50;99.90;;;;;;6269492;22;20406;-91
2023/10/07 11:57:05;;;;;;;15.10;4.10;;;19.70;99.90;;;;;;6245446;22;20837;-92
2023/10/07 11:59:41;;;;;;;16.17;4.43;;;20.30;99.90;;;;;;6267926;22;20459;-90
2023/10/07 12:02:10;;;;;;;11.25;3.78;;;19.80;99.90;;;;;;6245071;22;20464;-91
2023/10/07 12:04:42;;;;;;;14.45;4.55;;;19.50;99.90;;;;;;6268228;22;20361;-90
2023/10/07 12:07:08;;;;;;;12.90;4.47;;;19.60;99.90;;;;;;6269758;22;20786;-91
2023/10/07 12:09:37;;;;;;;12.60;3.90;;;19.40;99.90;;;;;;6244192;22;20379;-92
2023/10/07 12:12:03;;;;;;;13.52;4.43;;;19.40;99.90;;;;;;6268179;22;20368;-90
2023/10/07 12:14:31;;;;;;;12.88;3.83;;;19.30;99.90;;;;;;6244471;22;20368;-92
2023/10/07 12:16:58;;;;;;;15.17;4.00;;;19.20;99.90;;;;;;6242050;22;20365;-93
2023/10/07 12:19:24;;;;;;;13.55;4.25;;;19.00;99.90;;;;;;6244635;22;20742;-91
2023/10/07 12:21:50;;;;;;;15.88;4.50;;;19.50;99.90;;;;;;6242457;22;20752;-92
2023/10/07 12:24:16;;;;;;;13.23;3.73;;;19.40;99.90;;;;;;6248060;22;20403;-90
2023/10/07 12:26:46;;;;;;;15.35;3.95;;;19.40;99.90;;;;;;6272714;22;20727;-90
2023/10/07 12:29:12;;;;;;;12.35;3.88;;;19.40;99.90;;;;;;6272737;22;20370;-89
2023/10/07 12:31:39;;;;;;;13.05;3.83;;;19.50;99.90;;;;;;6273872;22;20375;-89
2023/10/07 12:34:05;;;;;;;13.95;3.70;;;19.50;99.90;;;;;;6272116;22;20443;-92
2023/10/07 12:36:31;;;;;;;12.73;3.97;;;19.30;99.90;;;;;;6248325;22;20399;-90
2023/10/07 12:38:57;;;;;;;11.65;3.40;;;19.00;99.90;;;;;;6246002;22;20374;-89
2023/10/07 12:41:22;;;;;;;13.38;3.83;;;19.30;99.90;;;;;;6249077;22;20723;-91
2023/10/07 12:43:48;;;;;;;15.00;4.50;;;19.00;99.90;;;;;;6247601;22;20378;-91
2023/10/07 12:46:14;;;;;;;14.40;4.07;;;18.90;99.90;;;;;;6248430;22;20393;-91
2023/10/07 12:48:40;;;;;;;11.32;4.00;;;18.90;99.90;;;;;;6248736;22;20700;-94
2023/10/07 12:51:07;;;;;;;13.50;4.25;;;19.00;99.90;;;;;;6246975;22;20408;-93
2023/10/07 12:53:34;;;;;;;12.43;3.70;;;19.20;99.90;;;;;;6249414;22;20744;-91
2023/10/07 12:56:13;;;;;;;14.57;4.67;;;19.00;99.90;;;;;;6246436;22;20369;-90
2023/10/07 12:58:39;;;;;;;13.50;4.60;;;19.20;99.90;;;;;;6274850;22;20377;-90
2023/10/07 13:01:12;;;;;;;14.98;4.68;;;18.60;99.90;;;;;;6245741;22;20359;-91
2023/10/07 13:03:44;;;;;;;13.25;4.10;;;18.80;99.90;;;;;;6247702;22;20506;-90
2023/10/07 13:06:11;;;;;;;16.85;5.13;;;18.90;99.90;;;;;;6248000;22;20429;-92
2023/10/07 13:08:41;;;;;;;13.95;4.90;;;18.80;99.90;;;;;;6247481;22;20872;-91
2023/10/07 13:11:12;;;;;;;12.40;4.78;;;18.80;99.90;;;;;;6249475;22;20363;-93
2023/10/07 13:13:41;;;;;;;13.13;3.97;;;19.00;99.90;;;;;;6246568;22;20366;-92
2023/10/07 13:16:10;;;;;;;11.90;4.13;;;18.70;99.90;;;;;;6274873;22;20847;-95
2023/10/07 13:18:45;;;;;;;12.40;4.32;;;18.70;99.90;;;;;;6248152;22;20362;-90
2023/10/07 13:21:13;;;;;;;13.47;4.60;;;18.60;99.90;;;;;;6273792;22;20370;-92
2023/10/07 13:23:40;;;;;;;11.65;4.32;;;18.60;99.90;;;;;;6249542;22;20397;-93
2023/10/07 13:26:08;;;;;;;15.17;4.60;;;18.60;99.90;;;;;;6246732;22;20398;-90
2023/10/07 13:28:38;;;;;;;11.93;4.50;;;18.50;99.90;;;;;;6248083;22;20371;-90
2023/10/07 13:31:09;;;;;;;11.55;4.25;;;18.90;99.90;;;;;;6271328;22;20367;-89
2023/10/07 13:33:38;;;;;;;15.02;5.13;;;18.70;99.90;;;;;;6273826;22;20370;-91
2023/10/07 13:36:06;;;;;;;19.70;6.83;;;18.60;99.90;;;;;;6247253;22;20362;-91